Time;durP1;ratioP1;P1;durP2;ratioP2;P2;SDS_P1;SDS_P2;PMS_P1;PMS_P2;Temp;Humidity;BMP_temperature;BMP_pressure;BME280_temperature;BME280_humidity;BME280_pressure;Samples;Min_cycle;Max_cycle;Signal;HPM_P1;HPM_P2
2022/12/21 00:01:27;;;;;;;0.30;0.30;;;;;;;;;;5005817;28;20030;-65
2022/12/21 00:03:55;;;;;;;0.60;0.30;;;;;;;;;;5007971;28;20018;-65
2022/12/21 00:06:22;;;;;;;3.40;0.43;;;;;;;;;;5011236;28;20393;-65
2022/12/21 00:08:50;;;;;;;0.93;0.70;;;;;;;;;;5013515;28;20433;-65
2022/12/21 00:11:17;;;;;;;0.70;0.57;;;;;;;;;;5013649;28;20488;-64
2022/12/21 00:13:44;;;;;;;2.63;0.53;;;;;;;;;;5012818;28;20022;-64
2022/12/21 00:16:13;;;;;;;0.30;0.20;;;;;;;;;;5012683;28;20030;-63
2022/12/21 00:18:40;;;;;;;0.30;0.30;;;;;;;;;;5010343;28;20014;-65
2022/12/21 00:21:11;;;;;;;0.93;0.60;;;;;;;;;;5008404;28;20054;-64
2022/12/21 00:23:38;;;;;;;1.03;0.63;;;;;;;;;;5007544;28;20025;-67
2022/12/21 00:26:05;;;;;;;3.40;0.87;;;;;;;;;;5007406;28;20026;-64
2022/12/21 00:28:32;;;;;;;0.23;0.20;;;;;;;;;;5010864;28;20100;-64
2022/12/21 00:31:06;;;;;;;1.57;0.73;;;;;;;;;;5013209;28;20034;-64
2022/12/21 00:33:33;;;;;;;1.30;0.55;;;;;;;;;;5013434;28;20026;-65
2022/12/21 00:36:00;;;;;;;0.57;0.53;;;;;;;;;;5013178;28;20022;-64
2022/12/21 00:38:26;;;;;;;1.23;0.50;;;;;;;;;;5013195;28;20022;-65
2022/12/21 00:41:02;;;;;;;1.10;0.63;;;;;;;;;;5010361;28;20034;-64
2022/12/21 00:43:29;;;;;;;1.70;0.63;;;;;;;;;;5007936;28;20069;-64
2022/12/21 00:45:57;;;;;;;0.77;0.50;;;;;;;;;;5003339;28;20026;-64
2022/12/21 00:48:25;;;;;;;0.50;0.37;;;;;;;;;;5004624;28;20018;-64
2022/12/21 00:50:51;;;;;;;0.80;0.33;;;;;;;;;;5014325;28;20041;-65
2022/12/21 00:53:18;;;;;;;0.30;0.30;;;;;;;;;;5012965;28;20050;-64
2022/12/21 00:55:58;;;;;;;12.17;0.63;;;;;;;;;;5012764;28;20037;-66
2022/12/21 00:58:26;;;;;;;0.20;0.13;;;;;;;;;;5012895;28;20022;-64
2022/12/21 01:00:54;;;;;;;0.20;0.20;;;;;;;;;;5012586;28;20028;-64
2022/12/21 01:03:20;;;;;;;0.10;0.10;;;;;;;;;;5009887;28;20029;-64
2022/12/21 01:05:48;;;;;;;0.60;0.17;;;;;;;;;;5007818;28;20037;-64
2022/12/21 01:08:15;;;;;;;0.70;0.40;;;;;;;;;;5007696;28;20033;-64
2022/12/21 01:10:43;;;;;;;0.17;0.17;;;;;;;;;;5004588;28;20042;-65
2022/12/21 01:13:11;;;;;;;0.20;0.20;;;;;;;;;;4990708;28;20516;-64
2022/12/21 01:15:41;;;;;;;0.17;0.10;;;;;;;;;;4998886;28;20029;-65
2022/12/21 01:18:08;;;;;;;0.10;0.10;;;;;;;;;;5012560;28;20113;-65
2022/12/21 01:20:34;;;;;;;0.10;0.10;;;;;;;;;;5010098;28;20034;-64
2022/12/21 01:23:01;;;;;;;0.50;0.30;;;;;;;;;;4993235;28;20097;-65
2022/12/21 01:25:28;;;;;;;0.20;0.17;;;;;;;;;;4991169;28;20500;-64
2022/12/21 01:27:55;;;;;;;1.20;0.83;;;;;;;;;;5004325;28;20437;-64
2022/12/21 01:30:21;;;;;;;3.43;0.70;;;;;;;;;;5005029;28;20041;-63
2022/12/21 01:32:48;;;;;;;2.40;1.30;;;;;;;;;;4994672;28;20384;-63
2022/12/21 01:50:49;;;;;;;1.63;1.10;;;;;;;;;;5067739;27;2124280;-62
2022/12/21 01:53:34;;;;;;;3.07;0.97;;;;;;;;;;5104109;28;20036;-61
2022/12/21 01:56:03;;;;;;;3.88;1.42;;;;;;;;;;5104228;28;20101;-63
2022/12/21 01:58:30;;;;;;;1.27;0.77;;;;;;;;;;5104403;28;20036;-62
2022/12/21 02:00:58;;;;;;;1.27;0.97;;;;;;;;;;5105238;28;20110;-62
2022/12/21 02:03:27;;;;;;;0.90;0.77;;;;;;;;;;5109119;28;20028;-63
2022/12/21 02:06:11;;;;;;;2.50;1.07;;;;;;;;;;5108970;28;20020;-64
2022/12/21 02:08:38;;;;;;;0.90;0.73;;;;;;;;;;5108841;28;20505;-62
2022/12/21 02:11:06;;;;;;;2.63;1.53;;;;;;;;;;5109526;28;20122;-62
2022/12/21 02:13:33;;;;;;;2.73;1.10;;;;;;;;;;5107007;28;20027;-63
2022/12/21 02:16:00;;;;;;;3.17;1.37;;;;;;;;;;5103978;28;20059;-63
2022/12/21 02:18:32;;;;;;;4.83;1.60;;;;;;;;;;5103255;28;20089;-63
2022/12/21 02:21:17;;;;;;;5.70;2.30;;;;;;;;;;5102425;28;20024;-62
2022/12/21 02:23:43;;;;;;;;;;;;;;;;;;5106680;28;20466;-62
2022/12/21 02:26:27;;;;;;;2.93;1.50;;;;;;;;;;5109097;28;20277;-62
2022/12/21 02:29:09;;;;;;;2.40;1.20;;;;;;;;;;5105031;28;20016;-62
2022/12/21 02:31:53;;;;;;;3.60;1.53;;;;;;;;;;5106050;28;20024;-62
2022/12/21 02:34:26;;;;;;;7.87;1.33;;;;;;;;;;5106325;28;20022;-63
2022/12/21 02:36:58;;;;;;;1.53;1.00;;;;;;;;;;5103318;28;20081;-62
2022/12/21 02:39:27;;;;;;;2.20;1.40;;;;;;;;;;5102921;28;20482;-62
2022/12/21 02:41:59;;;;;;;2.23;1.30;;;;;;;;;;5103683;28;20019;-62
2022/12/21 02:44:26;;;;;;;3.00;1.50;;;;;;;;;;5103459;28;20024;-62
2022/12/21 02:47:03;;;;;;;2.47;1.23;;;;;;;;;;5107852;28;20016;-62
2022/12/21 02:49:36;;;;;;;2.63;1.20;;;;;;;;;;5107273;28;20036;-62
2022/12/21 02:52:14;;;;;;;4.27;1.57;;;;;;;;;;5094059;28;20036;-63
2022/12/21 02:54:43;;;;;;;5.73;1.33;;;;;;;;;;5083133;28;20020;-62
2022/12/21 02:57:10;;;;;;;0.90;0.77;;;;;;;;;;5094965;28;20382;-62
2022/12/21 02:59:43;;;;;;;1.67;1.07;;;;;;;;;;5089214;28;20162;-62
2022/12/21 03:02:21;;;;;;;3.23;1.77;;;;;;;;;;5088911;28;20533;-63
2022/12/21 03:04:51;;;;;;;1.47;0.87;;;;;;;;;;5088875;28;20478;-62
2022/12/21 03:07:32;;;;;;;3.40;2.17;;;;;;;;;;5084176;28;20032;-62
2022/12/21 03:10:17;;;;;;;5.03;2.90;;;;;;;;;;5094229;28;20030;-62
2022/12/21 03:12:49;;;;;;;2.83;1.52;;;;;;;;;;5091517;28;20381;-62
2022/12/21 03:15:23;;;;;;;4.23;2.40;;;;;;;;;;5094438;28;20024;-62
2022/12/21 03:17:59;;;;;;;13.90;3.07;;;;;;;;;;5094197;28;20020;-65
2022/12/21 03:20:26;;;;;;;7.50;2.97;;;;;;;;;;5091920;28;20055;-62
2022/12/21 03:22:52;;;;;;;3.93;2.20;;;;;;;;;;5088939;28;20039;-62
2022/12/21 03:25:19;;;;;;;14.47;2.53;;;;;;;;;;5088962;28;20060;-62
2022/12/21 03:27:48;;;;;;;3.13;2.30;;;;;;;;;;5088935;28;20016;-62
2022/12/21 03:30:17;;;;;;;5.43;1.70;;;;;;;;;;5090995;28;20024;-62
2022/12/21 03:32:52;;;;;;;3.00;1.33;;;;;;;;;;5093404;28;20095;-65
2022/12/21 03:35:26;;;;;;;1.67;1.20;;;;;;;;;;5093874;28;20032;-62
2022/12/21 03:37:54;;;;;;;2.00;1.33;;;;;;;;;;5094152;28;20494;-62
2022/12/21 03:40:25;;;;;;;1.33;0.83;;;;;;;;;;5094327;28;20094;-62
2022/12/21 03:43:12;;;;;;;2.13;1.33;;;;;;;;;;5091494;28;20067;-62
2022/12/21 03:45:46;;;;;;;1.30;1.13;;;;;;;;;;5088426;28;20036;-62
2022/12/21 03:48:25;;;;;;;13.70;1.93;;;;;;;;;;5087051;28;20020;-62
2022/12/21 03:50:52;;;;;;;3.37;1.97;;;;;;;;;;5088394;28;20051;-62
2022/12/21 03:53:54;;;;;;;5.17;3.40;;;;;;;;;;5091299;28;20024;-62
2022/12/21 03:56:25;;;;;;;6.67;2.30;;;;;;;;;;4992047;28;20042;-62
2022/12/21 03:58:52;;;;;;;4.77;2.50;;;;;;;;;;5077024;28;20040;-62
2022/12/21 04:01:21;;;;;;;2.43;1.70;;;;;;;;;;5092627;28;20028;-62
2022/12/21 04:03:53;;;;;;;4.13;2.43;;;;;;;;;;5092297;28;20429;-62
2022/12/21 04:06:23;;;;;;;2.80;1.60;;;;;;;;;;5088369;28;20398;-63
2022/12/21 04:08:51;;;;;;;6.17;2.37;;;;;;;;;;5088518;28;20131;-62
2022/12/21 04:14:03;;;;;;;3.05;2.08;;;;;;;;;;5088234;28;20484;-62
2022/12/21 04:16:29;;;;;;;11.43;1.80;;;;;;;;;;5092918;28;20032;-62
2022/12/21 04:21:41;;;;;;;3.25;1.70;;;;;;;;;;5093331;28;20174;-62
2022/12/21 04:29:39;;;;;;;1.08;0.90;;;;;;;;;;5087524;28;20097;-61
2022/12/21 04:32:05;;;;;;;2.47;1.70;;;;;;;;;;5087402;28;20028;-67
2022/12/21 04:34:32;;;;;;;2.87;1.73;;;;;;;;;;5087389;28;20078;-61
2022/12/21 04:39:44;;;;;;;1.40;0.85;;;;;;;;;;5092707;28;20047;-62
2022/12/21 04:42:10;;;;;;;2.27;1.37;;;;;;;;;;5093037;28;20517;-64
2022/12/21 04:44:37;;;;;;;1.33;1.07;;;;;;;;;;5092341;28;20016;-63
2022/12/21 04:47:04;;;;;;;1.50;1.07;;;;;;;;;;5092773;28;20031;-62
2022/12/21 04:49:30;;;;;;;1.00;0.77;;;;;;;;;;5090761;28;20384;-63
2022/12/21 04:51:57;;;;;;;1.70;1.10;;;;;;;;;;5087499;28;20111;-62
2022/12/21 04:54:24;;;;;;;3.63;1.63;;;;;;;;;;5087190;28;20051;-62
2022/12/21 04:56:50;;;;;;;1.57;1.00;;;;;;;;;;5087544;28;20213;-62
2022/12/21 04:59:17;;;;;;;1.87;1.13;;;;;;;;;;5088580;28;20039;-62
2022/12/21 05:01:44;;;;;;;1.37;1.03;;;;;;;;;;5092278;28;20035;-65
2022/12/21 05:04:10;;;;;;;0.83;0.73;;;;;;;;;;5092317;28;20474;-62
2022/12/21 05:06:37;;;;;;;1.90;1.33;;;;;;;;;;5092547;28;20193;-62
2022/12/21 05:09:04;;;;;;;3.87;1.67;;;;;;;;;;5092751;28;20068;-62
2022/12/21 05:11:33;;;;;;;2.53;1.63;;;;;;;;;;5090861;28;20641;-62
2022/12/21 05:14:00;;;;;;;11.17;1.10;;;;;;;;;;5086519;28;20106;-62
2022/12/21 05:16:27;;;;;;;1.90;1.20;;;;;;;;;;5087025;28;20024;-62
2022/12/21 05:18:54;;;;;;;2.60;1.40;;;;;;;;;;5086774;28;20036;-63
2022/12/21 05:21:21;;;;;;;3.27;1.73;;;;;;;;;;5069150;28;20054;-62
2022/12/21 05:23:47;;;;;;;1.57;1.17;;;;;;;;;;5061924;28;20024;-62
2022/12/21 05:26:14;;;;;;;0.90;0.70;;;;;;;;;;5092164;28;20024;-62
2022/12/21 05:28:41;;;;;;;0.73;0.57;;;;;;;;;;5092352;28;20027;-62
2022/12/21 05:31:08;;;;;;;1.27;0.90;;;;;;;;;;5090998;28;20043;-62
2022/12/21 05:33:35;;;;;;;1.00;0.80;;;;;;;;;;5071575;28;20029;-62
2022/12/21 05:36:05;;;;;;;0.70;0.67;;;;;;;;;;5066587;28;20037;-64
2022/12/21 05:38:32;;;;;;;3.30;1.40;;;;;;;;;;5066717;28;20062;-62
2022/12/21 05:40:58;;;;;;;0.40;0.40;;;;;;;;;;5066841;28;20445;-62
2022/12/21 05:43:25;;;;;;;1.07;0.87;;;;;;;;;;5080374;28;20028;-62
2022/12/21 05:45:52;;;;;;;2.40;0.90;;;;;;;;;;5092121;28;20127;-62
2022/12/21 05:48:19;;;;;;;1.27;0.90;;;;;;;;;;5091989;28;20038;-62
2022/12/21 05:50:46;;;;;;;1.60;0.90;;;;;;;;;;5092330;28;20485;-62
2022/12/21 05:53:13;;;;;;;3.10;1.03;;;;;;;;;;5091449;28;20028;-62
2022/12/21 05:55:43;;;;;;;0.83;0.57;;;;;;;;;;5091883;28;20108;-62
2022/12/21 05:58:10;;;;;;;3.80;1.10;;;;;;;;;;5086576;28;20031;-62
2022/12/21 06:00:36;;;;;;;0.80;0.80;;;;;;;;;;5086820;28;20098;-62
2022/12/21 06:03:04;;;;;;;0.40;0.40;;;;;;;;;;5086490;28;20020;-62
2022/12/21 06:05:31;;;;;;;1.77;0.87;;;;;;;;;;5066599;28;20055;-62
2022/12/21 06:07:58;;;;;;;1.40;0.80;;;;;;;;;;5084975;28;20039;-65
2022/12/21 06:10:24;;;;;;;1.00;0.50;;;;;;;;;;5091591;28;20048;-62
2022/12/21 06:12:51;;;;;;;0.57;0.37;;;;;;;;;;5091594;28;20031;-62
2022/12/21 06:15:18;;;;;;;0.67;0.60;;;;;;;;;;5091752;28;20020;-62
2022/12/21 06:17:45;;;;;;;1.53;0.90;;;;;;;;;;5091868;28;20028;-62
2022/12/21 06:20:12;;;;;;;0.87;0.67;;;;;;;;;;5086724;28;20165;-62
2022/12/21 06:22:40;;;;;;;0.40;0.33;;;;;;;;;;5086165;28;20032;-62
2022/12/21 06:25:07;;;;;;;2.03;0.63;;;;;;;;;;5086339;28;20032;-62
2022/12/21 06:27:34;;;;;;;0.77;0.73;;;;;;;;;;5089905;28;20043;-62
2022/12/21 06:30:01;;;;;;;7.47;1.20;;;;;;;;;;5094634;28;20409;-62
2022/12/21 06:32:28;;;;;;;0.77;0.63;;;;;;;;;;5095481;28;20028;-62
2022/12/21 06:34:54;;;;;;;0.50;0.40;;;;;;;;;;5095604;28;20047;-62
2022/12/21 06:37:21;;;;;;;0.50;0.43;;;;;;;;;;5095551;28;20085;-62
2022/12/21 06:39:48;;;;;;;0.53;0.50;;;;;;;;;;5095161;28;20105;-62
2022/12/21 06:42:15;;;;;;;5.00;1.00;;;;;;;;;;5090092;28;20482;-62
2022/12/21 06:44:41;;;;;;;1.13;0.53;;;;;;;;;;5089690;28;20051;-62
2022/12/21 06:47:08;;;;;;;0.50;0.33;;;;;;;;;;5089504;28;20058;-62
2022/12/21 06:49:35;;;;;;;3.53;0.53;;;;;;;;;;5089652;28;20020;-62
2022/12/21 06:52:01;;;;;;;0.57;0.47;;;;;;;;;;5093758;28;20032;-62
2022/12/21 06:54:28;;;;;;;1.27;0.77;;;;;;;;;;5094843;28;20031;-62
2022/12/21 06:56:55;;;;;;;2.83;1.10;;;;;;;;;;5095060;28;20028;-62
2022/12/21 06:59:22;;;;;;;0.83;0.57;;;;;;;;;;5094457;28;20040;-62
2022/12/21 07:01:48;;;;;;;2.53;0.77;;;;;;;;;;5094903;28;20028;-62
2022/12/21 07:04:15;;;;;;;0.20;0.20;;;;;;;;;;5090312;28;20035;-62
2022/12/21 07:06:42;;;;;;;0.80;0.60;;;;;;;;;;5089604;28;20024;-62
2022/12/21 07:09:11;;;;;;;2.27;1.20;;;;;;;;;;5089557;28;20432;-62
2022/12/21 07:11:38;;;;;;;1.13;0.80;;;;;;;;;;5089384;28;20020;-62
2022/12/21 07:14:05;;;;;;;0.97;0.73;;;;;;;;;;5092460;28;20028;-65
2022/12/21 07:16:32;;;;;;;0.70;0.67;;;;;;;;;;5094490;28;20024;-62
2022/12/21 07:18:59;;;;;;;0.93;0.73;;;;;;;;;;5094462;28;20040;-62
2022/12/21 07:21:25;;;;;;;1.53;0.70;;;;;;;;;;5094655;28;20032;-62
2022/12/21 07:23:52;;;;;;;1.03;0.50;;;;;;;;;;5094199;28;20036;-62
2022/12/21 07:26:23;;;;;;;1.73;0.70;;;;;;;;;;5090898;28;20350;-62
2022/12/21 07:28:50;;;;;;;1.10;0.70;;;;;;;;;;5088885;28;20043;-62
2022/12/21 07:31:18;;;;;;;2.30;1.07;;;;;;;;;;5088654;28;20028;-62
2022/12/21 07:33:45;;;;;;;1.80;0.63;;;;;;;;;;5089054;28;20482;-62
2022/12/21 07:36:13;;;;;;;0.47;0.30;;;;;;;;;;5091783;28;20031;-62
2022/12/21 07:38:40;;;;;;;1.43;0.90;;;;;;;;;;5093827;28;20039;-62
2022/12/21 07:41:08;;;;;;;0.63;0.53;;;;;;;;;;5094432;28;20481;-61
2022/12/21 07:43:35;;;;;;;1.10;0.77;;;;;;;;;;5094053;28;20406;-62
2022/12/21 07:46:02;;;;;;;0.97;0.80;;;;;;;;;;5093490;28;20065;-65
2022/12/21 07:48:29;;;;;;;2.47;1.27;;;;;;;;;;5090496;28;20038;-62
2022/12/21 07:50:56;;;;;;;1.73;1.33;;;;;;;;;;5088518;28;20081;-61
2022/12/21 07:53:23;;;;;;;1.13;0.60;;;;;;;;;;5088402;28;20448;-62
2022/12/21 07:55:50;;;;;;;0.80;0.57;;;;;;;;;;5088372;28;20036;-62
2022/12/21 07:58:16;;;;;;;0.40;0.40;;;;;;;;;;5091200;28;20107;-61
2022/12/21 08:00:43;;;;;;;1.57;0.90;;;;;;;;;;5093744;28;20028;-62
2022/12/21 08:03:10;;;;;;;2.00;1.17;;;;;;;;;;5093455;28;20402;-62
2022/12/21 08:05:37;;;;;;;0.90;0.70;;;;;;;;;;5093604;28;20020;-62
2022/12/21 08:08:03;;;;;;;1.03;0.70;;;;;;;;;;5093300;28;20027;-62
2022/12/21 08:10:30;;;;;;;2.33;1.10;;;;;;;;;;5090800;28;20048;-62
2022/12/21 08:12:57;;;;;;;1.13;0.67;;;;;;;;;;5087921;28;20028;-62
2022/12/21 08:15:24;;;;;;;0.77;0.70;;;;;;;;;;5087946;28;20117;-61
2022/12/21 08:17:51;;;;;;;1.30;0.77;;;;;;;;;;5087908;28;20538;-64
2022/12/21 08:20:19;;;;;;;1.13;0.80;;;;;;;;;;5090134;28;20047;-62
2022/12/21 08:22:46;;;;;;;0.83;0.53;;;;;;;;;;5093141;28;20036;-62
2022/12/21 08:25:12;;;;;;;0.43;0.40;;;;;;;;;;5092963;28;20466;-62
2022/12/21 08:27:41;;;;;;;0.23;0.23;;;;;;;;;;5093133;28;20028;-61
2022/12/21 08:30:08;;;;;;;1.00;0.67;;;;;;;;;;5093195;28;20035;-61
2022/12/21 08:32:35;;;;;;;1.60;0.70;;;;;;;;;;5084935;28;20070;-62
2022/12/21 08:35:02;;;;;;;0.60;0.40;;;;;;;;;;5067419;28;20032;-61
2022/12/21 08:37:28;;;;;;;0.70;0.50;;;;;;;;;;5067602;28;20475;-62
2022/12/21 08:39:55;;;;;;;0.23;0.20;;;;;;;;;;5067617;28;20032;-62
2022/12/21 08:42:22;;;;;;;1.13;0.77;;;;;;;;;;5069305;28;20021;-62
2022/12/21 08:44:49;;;;;;;1.53;0.77;;;;;;;;;;5079250;28;20397;-62
2022/12/21 08:47:16;;;;;;;2.17;0.90;;;;;;;;;;5092753;28;20103;-61
2022/12/21 08:49:43;;;;;;;0.30;0.23;;;;;;;;;;5092716;28;20477;-64
2022/12/21 08:52:09;;;;;;;0.60;0.40;;;;;;;;;;5092744;28;20051;-61
2022/12/21 08:54:36;;;;;;;0.10;0.10;;;;;;;;;;5090901;28;20803;-62
2022/12/21 08:57:03;;;;;;;0.73;0.60;;;;;;;;;;5087783;28;20012;-61
2022/12/21 08:59:29;;;;;;;1.70;0.77;;;;;;;;;;5087481;28;20040;-61
2022/12/21 09:01:56;;;;;;;0.77;0.50;;;;;;;;;;5087630;28;20386;-61
2022/12/21 09:04:23;;;;;;;0.27;0.27;;;;;;;;;;5087944;28;20040;-61
2022/12/21 09:06:50;;;;;;;0.17;0.17;;;;;;;;;;5092162;28;20081;-64
2022/12/21 09:09:16;;;;;;;0.40;0.40;;;;;;;;;;5092753;28;20081;-62
2022/12/21 09:11:43;;;;;;;0.30;0.30;;;;;;;;;;5092292;28;20028;-61
2022/12/21 09:14:10;;;;;;;0.40;0.30;;;;;;;;;;5092511;28;20027;-61
2022/12/21 09:16:37;;;;;;;0.30;0.30;;;;;;;;;;5090661;28;20024;-61
2022/12/21 09:19:03;;;;;;;0.30;0.20;;;;;;;;;;5087135;28;20085;-62
2022/12/21 09:21:30;;;;;;;1.90;0.43;;;;;;;;;;5086793;28;20062;-61
2022/12/21 09:23:57;;;;;;;0.70;0.40;;;;;;;;;;5086668;28;20027;-62
2022/12/21 09:26:24;;;;;;;1.37;0.70;;;;;;;;;;5087361;28;20408;-62
2022/12/21 09:28:50;;;;;;;0.20;0.20;;;;;;;;;;5092106;28;20466;-61
2022/12/21 09:31:18;;;;;;;0.50;0.37;;;;;;;;;;5092300;28;20024;-61
2022/12/21 09:33:46;;;;;;;0.37;0.30;;;;;;;;;;5092252;28;20020;-61
2022/12/21 09:36:13;;;;;;;0.57;0.40;;;;;;;;;;5092369;28;20016;-61
2022/12/21 09:38:40;;;;;;;0.23;0.23;;;;;;;;;;5090794;28;20032;-62
2022/12/21 09:41:07;;;;;;;0.50;0.30;;;;;;;;;;5086758;28;20024;-61
2022/12/21 09:43:41;;;;;;;0.20;0.17;;;;;;;;;;5086406;28;20039;-61
2022/12/21 09:46:11;;;;;;;0.22;0.22;;;;;;;;;;5087073;28;21097;-61
2022/12/21 09:48:53;;;;;;;1.03;0.77;;;;;;;;;;5087344;28;20126;-61
2022/12/21 09:51:23;;;;;;;0.80;0.50;;;;;;;;;;5091380;28;20036;-61
2022/12/21 09:53:53;;;;;;;0.67;0.50;;;;;;;;;;5092056;28;20337;-61
2022/12/21 09:56:22;;;;;;;0.00;0.00;;;;;;;;;;5091625;28;20099;-62
2022/12/21 09:58:49;;;;;;;0.27;0.20;;;;;;;;;;5091837;28;20046;-61
2022/12/21 10:01:27;;;;;;;0.30;0.23;;;;;;;;;;5092793;28;20082;-61
2022/12/21 10:04:03;;;;;;;0.83;0.60;;;;;;;;;;5090712;28;20035;-61
2022/12/21 10:06:49;;;;;;;0.23;0.17;;;;;;;;;;5090627;28;20474;-61
2022/12/21 10:09:19;;;;;;;0.03;0.03;;;;;;;;;;5077597;28;20085;-61
2022/12/21 10:12:04;;;;;;;0.10;0.10;;;;;;;;;;5092961;28;20486;-61
2022/12/21 10:14:49;;;;;;;1.20;0.43;;;;;;;;;;5096269;28;20058;-62
2022/12/21 10:17:19;;;;;;;0.05;0.05;;;;;;;;;;5082751;28;20065;-61
2022/12/21 10:19:46;;;;;;;0.20;0.20;;;;;;;;;;5095751;28;20055;-61
2022/12/21 10:22:19;;;;;;;0.10;0.10;;;;;;;;;;5095307;28;20036;-61
2022/12/21 10:24:57;;;;;;;1.43;1.23;;;;;;;;;;5090978;28;20039;-61
2022/12/21 10:27:24;;;;;;;0.30;0.30;;;;;;;;;;5086529;28;20034;-61
2022/12/21 10:29:53;;;;;;;0.30;0.27;;;;;;;;;;5090384;28;20035;-61
2022/12/21 10:32:20;;;;;;;0.20;0.10;;;;;;;;;;5089933;28;20081;-64
2022/12/21 10:34:50;;;;;;;0.90;0.43;;;;;;;;;;5094402;28;20028;-61
2022/12/21 10:37:18;;;;;;;0.40;0.30;;;;;;;;;;5082323;28;20021;-61
2022/12/21 10:39:46;;;;;;;0.63;0.43;;;;;;;;;;5095300;28;20028;-61
2022/12/21 10:42:21;;;;;;;0.13;0.13;;;;;;;;;;5095131;28;20038;-61
2022/12/21 10:44:47;;;;;;;;;;;;;;;;;;5095796;28;20039;-63
2022/12/21 10:47:19;;;;;;;0.20;0.20;;;;;;;;;;5089549;28;19953;-61
2022/12/21 10:50:04;;;;;;;0.20;0.20;;;;;;;;;;5090099;28;20055;-62
2022/12/21 10:52:39;;;;;;;0.47;0.35;;;;;;;;;;5089227;28;20035;-61
2022/12/21 10:55:07;;;;;;;0.38;0.25;;;;;;;;;;5089281;28;20024;-62
2022/12/21 10:57:35;;;;;;;0.20;0.20;;;;;;;;;;5095117;28;20016;-61
2022/12/21 11:00:20;;;;;;;1.33;0.50;;;;;;;;;;5094716;28;20137;-61
2022/12/21 11:02:48;;;;;;;0.20;0.10;;;;;;;;;;5094745;28;20042;-61
2022/12/21 11:05:27;;;;;;;0.30;0.27;;;;;;;;;;5094474;28;20040;-61
2022/12/21 11:07:54;;;;;;;0.40;0.23;;;;;;;;;;5093438;28;20084;-61
2022/12/21 11:10:27;;;;;;;0.00;0.00;;;;;;;;;;5089855;28;20027;-61
2022/12/21 11:12:53;;;;;;;0.10;0.10;;;;;;;;;;5089137;28;20028;-61
2022/12/21 11:15:24;;;;;;;0.73;0.47;;;;;;;;;;5089432;28;20027;-61
2022/12/21 11:17:51;;;;;;;0.57;0.30;;;;;;;;;;5089976;28;20036;-61
2022/12/21 11:20:19;;;;;;;0.83;0.40;;;;;;;;;;5094472;28;20085;-61
2022/12/21 11:22:47;;;;;;;1.33;0.50;;;;;;;;;;5094419;28;20020;-61
2022/12/21 11:25:15;;;;;;;1.40;0.90;;;;;;;;;;5094416;28;20020;-61
2022/12/21 11:27:44;;;;;;;0.40;0.30;;;;;;;;;;5094143;28;20024;-61
2022/12/21 11:30:35;;;;;;;0.40;0.20;;;;;;;;;;5092759;28;20016;-61
2022/12/21 11:33:03;;;;;;;0.03;0.00;;;;;;;;;;5088882;28;20115;-61
2022/12/21 11:35:30;;;;;;;0.43;0.43;;;;;;;;;;5088068;28;20760;-61
2022/12/21 11:38:02;;;;;;;1.40;0.47;;;;;;;;;;5088917;28;20287;-61
2022/12/21 11:40:30;;;;;;;1.80;0.67;;;;;;;;;;5090474;28;20039;-64
2022/12/21 11:42:59;;;;;;;0.50;0.50;;;;;;;;;;5094116;28;20370;-61
2022/12/21 11:45:29;;;;;;;0.50;0.30;;;;;;;;;;5094441;28;20761;-61
2022/12/21 11:48:16;;;;;;;0.10;0.10;;;;;;;;;;5094035;28;20467;-61
2022/12/21 11:50:42;;;;;;;0.30;0.30;;;;;;;;;;5093874;28;20497;-61
2022/12/21 11:53:18;;;;;;;0.20;0.20;;;;;;;;;;5090557;28;20032;-61
2022/12/21 11:55:56;;;;;;;0.33;0.27;;;;;;;;;;5088740;28;20494;-61
2022/12/21 11:58:46;;;;;;;0.10;0.10;;;;;;;;;;5088083;28;20038;-61
2022/12/21 12:01:27;;;;;;;0.40;0.40;;;;;;;;;;5074927;28;20631;-61
2022/12/21 12:04:03;;;;;;;0.93;0.57;;;;;;;;;;5092600;28;20257;-61
2022/12/21 12:06:41;;;;;;;0.37;0.37;;;;;;;;;;5094035;28;20244;-61
2022/12/21 12:09:36;;;;;;;0.73;0.40;;;;;;;;;;5073430;28;20647;-61
2022/12/21 12:12:15;;;;;;;1.48;0.77;;;;;;;;;;5056186;28;20032;-61
2022/12/21 12:15:00;;;;;;;0.47;0.43;;;;;;;;;;5092031;28;20534;-61
2022/12/21 12:17:27;;;;;;;0.98;0.82;;;;;;;;;;5088488;28;20272;-61
2022/12/21 12:19:57;;;;;;;1.53;1.17;;;;;;;;;;5087529;28;20046;-61
2022/12/21 12:22:30;;;;;;;0.70;0.70;;;;;;;;;;5087424;28;20032;-61
2022/12/21 12:25:14;;;;;;;0.30;0.30;;;;;;;;;;5089659;28;20032;-63
2022/12/21 12:27:44;;;;;;;0.95;0.82;;;;;;;;;;5092981;28;20399;-61
2022/12/21 12:30:22;;;;;;;1.87;1.10;;;;;;;;;;5093096;28;20032;-61
2022/12/21 12:33:07;;;;;;;1.13;0.90;;;;;;;;;;5093109;28;20024;-61
2022/12/21 12:35:37;;;;;;;2.05;1.33;;;;;;;;;;5092562;28;20111;-61
2022/12/21 12:38:22;;;;;;;5.00;1.00;;;;;;;;;;5088698;28;20040;-61
2022/12/21 12:41:09;;;;;;;1.08;0.80;;;;;;;;;;5087293;28;20042;-64
2022/12/21 12:43:44;;;;;;;0.97;0.70;;;;;;;;;;5087077;28;20415;-61
2022/12/21 12:46:11;;;;;;;0.20;0.20;;;;;;;;;;5087673;28;20020;-61
2022/12/21 12:48:38;;;;;;;2.53;1.43;;;;;;;;;;5092644;28;20020;-61
2022/12/21 12:51:14;;;;;;;0.53;0.43;;;;;;;;;;5092681;28;20036;-64
2022/12/21 12:53:43;;;;;;;0.93;0.77;;;;;;;;;;5092349;28;20028;-61
2022/12/21 12:56:16;;;;;;;1.80;1.10;;;;;;;;;;5093170;28;20490;-61
2022/12/21 12:58:52;;;;;;;1.03;0.53;;;;;;;;;;5091274;28;20028;-60
2022/12/21 13:01:25;;;;;;;0.73;0.60;;;;;;;;;;5086932;28;20024;-64
2022/12/21 13:04:14;;;;;;;0.87;0.70;;;;;;;;;;5086858;28;20028;-61
2022/12/21 13:06:45;;;;;;;0.93;0.73;;;;;;;;;;5074245;28;20032;-61
2022/12/21 13:09:31;;;;;;;0.60;0.50;;;;;;;;;;5088974;28;20038;-61
2022/12/21 13:12:29;;;;;;;1.83;1.02;;;;;;;;;;5092163;28;20032;-61
2022/12/21 13:15:04;;;;;;;5.87;0.90;;;;;;;;;;5037549;28;20043;-65
2022/12/21 13:17:40;;;;;;;3.10;1.10;;;;;;;;;;5092540;28;20423;-61
2022/12/21 13:20:09;;;;;;;2.20;1.50;;;;;;;;;;5092158;28;20032;-61
2022/12/21 13:22:36;;;;;;;5.70;1.20;;;;;;;;;;5087407;28;20041;-61
2022/12/21 13:25:06;;;;;;;35.03;2.27;;;;;;;;;;5087353;28;20019;-61
2022/12/21 13:27:41;;;;;;;5.07;1.63;;;;;;;;;;5086448;28;20533;-61
2022/12/21 13:30:15;;;;;;;1.65;0.88;;;;;;;;;;5086858;28;20467;-61
2022/12/21 13:32:45;;;;;;;1.53;1.10;;;;;;;;;;5091339;28;20359;-61
2022/12/21 13:35:17;;;;;;;1.40;1.07;;;;;;;;;;5092151;28;20471;-61
2022/12/21 13:37:45;;;;;;;0.70;0.60;;;;;;;;;;5090622;28;20137;-61
2022/12/21 13:40:18;;;;;;;0.90;0.63;;;;;;;;;;5092162;28;20085;-61
2022/12/21 13:42:48;;;;;;;1.57;1.00;;;;;;;;;;5091374;28;20024;-61
2022/12/21 13:45:24;;;;;;;0.50;0.40;;;;;;;;;;5086523;28;20470;-61
2022/12/21 13:47:52;;;;;;;0.47;0.40;;;;;;;;;;5086614;28;20036;-61
2022/12/21 13:50:31;;;;;;;27.27;1.33;;;;;;;;;;5086693;28;20036;-61
2022/12/21 13:53:15;;;;;;;1.13;0.90;;;;;;;;;;5086578;28;20386;-61
2022/12/21 13:56:01;;;;;;;1.60;1.17;;;;;;;;;;5091805;28;20032;-60
2022/12/21 13:58:36;;;;;;;3.33;1.77;;;;;;;;;;5092118;28;20047;-61
2022/12/21 14:01:15;;;;;;;4.10;2.03;;;;;;;;;;5091622;28;20020;-61
2022/12/21 14:03:51;;;;;;;2.40;1.47;;;;;;;;;;5092016;28;20024;-61
2022/12/21 14:06:33;;;;;;;8.83;2.20;;;;;;;;;;5088672;28;20051;-62
2022/12/21 14:09:18;;;;;;;4.27;2.43;;;;;;;;;;5086069;28;20045;-61
2022/12/21 14:12:04;;;;;;;1.52;1.35;;;;;;;;;;5085972;28;20044;-61
2022/12/21 14:14:30;;;;;;;3.20;1.80;;;;;;;;;;5086262;28;20343;-62
2022/12/21 14:16:58;;;;;;;4.60;1.67;;;;;;;;;;5090548;28;20056;-61
2022/12/21 14:19:25;;;;;;;2.93;1.50;;;;;;;;;;5092024;28;20082;-62
2022/12/21 14:21:52;;;;;;;1.17;1.00;;;;;;;;;;5091462;28;20016;-61
2022/12/21 14:24:31;;;;;;;3.23;1.33;;;;;;;;;;5091576;28;20378;-61
2022/12/21 14:27:10;;;;;;;7.13;1.23;;;;;;;;;;5091300;28;20024;-61
2022/12/21 14:29:38;;;;;;;14.83;1.53;;;;;;;;;;5086109;28;20024;-61
2022/12/21 14:32:17;;;;;;;0.90;0.60;;;;;;;;;;5083003;28;20039;-62
2022/12/21 14:34:48;;;;;;;1.50;1.03;;;;;;;;;;5065682;28;20498;-62
2022/12/21 14:37:15;;;;;;;0.83;0.70;;;;;;;;;;5066115;28;20029;-61
2022/12/21 14:39:59;;;;;;;2.00;0.83;;;;;;;;;;5071459;28;20054;-61
2022/12/21 14:42:34;;;;;;;1.40;0.90;;;;;;;;;;5080387;28;20551;-61
2022/12/21 14:45:13;;;;;;;1.13;0.68;;;;;;;;;;5091230;28;20268;-62
2022/12/21 14:48:01;;;;;;;0.97;0.70;;;;;;;;;;5094487;28;20057;-62
2022/12/21 14:50:27;;;;;;;3.13;1.37;;;;;;;;;;5092739;28;20551;-62
2022/12/21 14:53:10;;;;;;;1.13;0.83;;;;;;;;;;5089237;28;20537;-62
2022/12/21 14:55:43;;;;;;;1.07;0.77;;;;;;;;;;5089221;28;20807;-62
2022/12/21 14:58:15;;;;;;;1.27;0.70;;;;;;;;;;5089571;28;20032;-62
2022/12/21 15:01:01;;;;;;;3.07;0.97;;;;;;;;;;5092140;28;20040;-63
2022/12/21 15:03:28;;;;;;;2.10;1.10;;;;;;;;;;5094755;28;20023;-62
2022/12/21 15:06:18;;;;;;;6.57;1.37;;;;;;;;;;5095231;28;20033;-62
2022/12/21 15:08:46;;;;;;;9.10;1.17;;;;;;;;;;5092685;28;20043;-63
2022/12/21 15:11:22;;;;;;;1.20;0.90;;;;;;;;;;5094846;28;20542;-62
2022/12/21 15:14:01;;;;;;;1.13;0.87;;;;;;;;;;5089459;28;20148;-62
2022/12/21 15:16:31;;;;;;;3.97;1.43;;;;;;;;;;5088983;28;20116;-61
2022/12/21 15:19:00;;;;;;;1.97;1.13;;;;;;;;;;5088726;28;20036;-62
2022/12/21 15:21:30;;;;;;;1.93;1.20;;;;;;;;;;5089241;28;20659;-62
2022/12/21 15:23:59;;;;;;;2.03;1.40;;;;;;;;;;5094081;28;20055;-62
2022/12/21 15:26:45;;;;;;;3.47;1.37;;;;;;;;;;5093868;28;20432;-62
2022/12/21 15:29:25;;;;;;;1.57;0.90;;;;;;;;;;5092947;28;20028;-62
2022/12/21 15:31:53;;;;;;;1.30;0.70;;;;;;;;;;5094421;28;20040;-62
2022/12/21 15:34:28;;;;;;;1.53;1.00;;;;;;;;;;5092687;28;20135;-62